CDU weather

Camden Airport
New South Wales, Australia

Public forecast

Using degrees Celsius for public forecast. Weather courtesy of forecast.io.

METAR (pilot weather report)

Closest report is Sydney Kingsford Smith International Airport, 25.0 nm (46.4 km) ENE. Retrieved 2018/07/18 00:30 UTC (0 seconds ago):

YSSY 180030Z 14005KT 110V170 CAVOK 16/00 Q1018 NOSIG

TAF (pilot weather forecast)

Forecast is more than 12 hours old.

Closest forecast is Sydney Kingsford Smith International Airport, 25.0 nm (46.4 km) ENE. Retrieved 2018/07/17 00:00 UTC (1 day ago):

TAF YSSY 172303Z 1800/1906 29008KT CAVOK